sensor_id;sensor_type;location;lat;lon;timestamp;temperature;humidity
19555;DHT22;9924;50.828;6.440;2023-04-08T00:01:07;8.40;99.90
19555;DHT22;9924;50.828;6.440;2023-04-08T00:03:52;8.40;99.90
19555;DHT22;9924;50.828;6.440;2023-04-08T00:06:36;8.40;99.90
19555;DHT22;9924;50.828;6.440;2023-04-08T00:09:21;8.40;99.90
19555;DHT22;9924;50.828;6.440;2023-04-08T00:12:06;8.40;99.90
19555;DHT22;9924;50.828;6.440;2023-04-08T00:14:50;8.40;99.90
19555;DHT22;9924;50.828;6.440;2023-04-08T00:17:34;8.30;99.90
19555;DHT22;9924;50.828;6.440;2023-04-08T00:20:20;8.30;99.90
19555;DHT22;9924;50.828;6.440;2023-04-08T00:23:05;8.30;99.90
19555;DHT22;9924;50.828;6.440;2023-04-08T00:25:49;8.20;99.90
19555;DHT22;9924;50.828;6.440;2023-04-08T00:28:34;8.20;99.90
19555;DHT22;9924;50.828;6.440;2023-04-08T00:31:18;8.30;99.90
19555;DHT22;9924;50.828;6.440;2023-04-08T00:34:02;8.30;99.90
19555;DHT22;9924;50.828;6.440;2023-04-08T00:36:47;8.30;99.90
19555;DHT22;9924;50.828;6.440;2023-04-08T00:39:31;8.20;99.90
19555;DHT22;9924;50.828;6.440;2023-04-08T00:42:16;8.20;99.90
19555;DHT22;9924;50.828;6.440;2023-04-08T00:45:01;8.20;99.90
19555;DHT22;9924;50.828;6.440;2023-04-08T00:47:45;8.30;99.90
19555;DHT22;9924;50.828;6.440;2023-04-08T00:50:30;8.30;99.90
19555;DHT22;9924;50.828;6.440;2023-04-08T00:53:17;8.30;99.90
19555;DHT22;9924;50.828;6.440;2023-04-08T00:56:01;8.30;99.90
19555;DHT22;9924;50.828;6.440;2023-04-08T00:58:46;8.30;99.90
19555;DHT22;9924;50.828;6.440;2023-04-08T01:07:24;8.30;99.90
19555;DHT22;9924;50.828;6.440;2023-04-08T01:10:29;8.30;99.90
19555;DHT22;9924;50.828;6.440;2023-04-08T01:13:16;8.30;99.90
19555;DHT22;9924;50.828;6.440;2023-04-08T01:16:00;8.30;99.90
19555;DHT22;9924;50.828;6.440;2023-04-08T01:18:45;8.40;99.90
19555;DHT22;9924;50.828;6.440;2023-04-08T01:21:30;8.40;99.90
19555;DHT22;9924;50.828;6.440;2023-04-08T01:24:30;8.40;99.90
19555;DHT22;9924;50.828;6.440;2023-04-08T01:27:18;8.40;99.90
19555;DHT22;9924;50.828;6.440;2023-04-08T01:30:03;8.40;99.90
19555;DHT22;9924;50.828;6.440;2023-04-08T01:32:51;8.40;99.90
19555;DHT22;9924;50.828;6.440;2023-04-08T01:35:35;8.30;99.90
19555;DHT22;9924;50.828;6.440;2023-04-08T01:38:22;8.40;99.90
19555;DHT22;9924;50.828;6.440;2023-04-08T01:41:10;8.40;99.90
19555;DHT22;9924;50.828;6.440;2023-04-08T01:43:54;8.40;99.90
19555;DHT22;9924;50.828;6.440;2023-04-08T01:46:40;8.30;99.90
19555;DHT22;9924;50.828;6.440;2023-04-08T01:49:26;8.30;99.90
19555;DHT22;9924;50.828;6.440;2023-04-08T01:52:10;8.30;99.90
19555;DHT22;9924;50.828;6.440;2023-04-08T01:54:56;8.30;99.90
19555;DHT22;9924;50.828;6.440;2023-04-08T01:57:43;8.40;99.90
19555;DHT22;9924;50.828;6.440;2023-04-08T02:00:31;8.40;99.90
19555;DHT22;9924;50.828;6.440;2023-04-08T02:03:17;8.40;99.90
19555;DHT22;9924;50.828;6.440;2023-04-08T02:06:04;8.40;99.90
19555;DHT22;9924;50.828;6.440;2023-04-08T02:08:48;8.40;99.90
19555;DHT22;9924;50.828;6.440;2023-04-08T02:11:33;8.40;99.90
19555;DHT22;9924;50.828;6.440;2023-04-08T02:14:17;8.40;99.90
19555;DHT22;9924;50.828;6.440;2023-04-08T02:23:23;8.40;99.90
19555;DHT22;9924;50.828;6.440;2023-04-08T02:26:12;8.40;99.90
19555;DHT22;9924;50.828;6.440;2023-04-08T02:28:57;8.40;99.90
19555;DHT22;9924;50.828;6.440;2023-04-08T02:31:42;8.40;99.90
19555;DHT22;9924;50.828;6.440;2023-04-08T02:34:28;8.40;99.90
19555;DHT22;9924;50.828;6.440;2023-04-08T02:37:13;8.30;99.90
19555;DHT22;9924;50.828;6.440;2023-04-08T02:39:57;8.30;99.90
19555;DHT22;9924;50.828;6.440;2023-04-08T02:42:42;8.30;99.90
19555;DHT22;9924;50.828;6.440;2023-04-08T02:45:29;8.40;99.90
19555;DHT22;9924;50.828;6.440;2023-04-08T02:48:14;8.30;99.90
19555;DHT22;9924;50.828;6.440;2023-04-08T02:50:59;8.30;99.90
19555;DHT22;9924;50.828;6.440;2023-04-08T02:53:43;8.30;99.90
19555;DHT22;9924;50.828;6.440;2023-04-08T02:56:27;8.30;99.90
19555;DHT22;9924;50.828;6.440;2023-04-08T02:59:12;8.30;99.90
19555;DHT22;9924;50.828;6.440;2023-04-08T03:01:56;8.30;99.90
19555;DHT22;9924;50.828;6.440;2023-04-08T03:04:41;8.20;99.90
19555;DHT22;9924;50.828;6.440;2023-04-08T03:07:25;8.20;99.90
19555;DHT22;9924;50.828;6.440;2023-04-08T03:10:10;8.20;99.90
19555;DHT22;9924;50.828;6.440;2023-04-08T03:12:54;8.20;99.90
19555;DHT22;9924;50.828;6.440;2023-04-08T03:15:38;8.20;99.90
19555;DHT22;9924;50.828;6.440;2023-04-08T03:18:24;8.20;99.90
19555;DHT22;9924;50.828;6.440;2023-04-08T03:21:08;8.30;99.90
19555;DHT22;9924;50.828;6.440;2023-04-08T03:23:53;8.20;99.90
19555;DHT22;9924;50.828;6.440;2023-04-08T03:26:37;8.20;99.90
19555;DHT22;9924;50.828;6.440;2023-04-08T03:29:21;8.20;99.90
19555;DHT22;9924;50.828;6.440;2023-04-08T03:32:06;8.20;99.90
19555;DHT22;9924;50.828;6.440;2023-04-08T03:34:50;8.20;99.90
19555;DHT22;9924;50.828;6.440;2023-04-08T03:37:35;8.20;99.90
19555;DHT22;9924;50.828;6.440;2023-04-08T03:40:19;8.10;99.90
19555;DHT22;9924;50.828;6.440;2023-04-08T03:43:04;8.10;99.90
19555;DHT22;9924;50.828;6.440;2023-04-08T03:45:49;8.10;99.90
19555;DHT22;9924;50.828;6.440;2023-04-08T03:48:34;8.10;99.90
19555;DHT22;9924;50.828;6.440;2023-04-08T03:51:18;8.10;99.90
19555;DHT22;9924;50.828;6.440;2023-04-08T03:54:02;8.00;99.90
19555;DHT22;9924;50.828;6.440;2023-04-08T03:56:48;8.00;99.90
19555;DHT22;9924;50.828;6.440;2023-04-08T03:59:33;8.00;99.90
19555;DHT22;9924;50.828;6.440;2023-04-08T04:02:19;8.00;99.90
19555;DHT22;9924;50.828;6.440;2023-04-08T04:05:04;8.00;99.90
19555;DHT22;9924;50.828;6.440;2023-04-08T04:07:48;8.00;99.90
19555;DHT22;9924;50.828;6.440;2023-04-08T04:10:32;8.00;99.90
19555;DHT22;9924;50.828;6.440;2023-04-08T04:13:17;8.00;99.90
19555;DHT22;9924;50.828;6.440;2023-04-08T04:16:03;8.00;99.90
19555;DHT22;9924;50.828;6.440;2023-04-08T04:18:47;8.00;99.90
19555;DHT22;9924;50.828;6.440;2023-04-08T04:21:31;8.00;99.90
19555;DHT22;9924;50.828;6.440;2023-04-08T04:24:16;8.00;99.90
19555;DHT22;9924;50.828;6.440;2023-04-08T04:27:00;8.00;99.90
19555;DHT22;9924;50.828;6.440;2023-04-08T04:29:45;8.10;99.90
19555;DHT22;9924;50.828;6.440;2023-04-08T04:32:29;8.10;99.90
19555;DHT22;9924;50.828;6.440;2023-04-08T04:35:14;8.10;99.90
19555;DHT22;9924;50.828;6.440;2023-04-08T04:37:58;8.10;99.90
19555;DHT22;9924;50.828;6.440;2023-04-08T04:40:42;8.10;99.90
19555;DHT22;9924;50.828;6.440;2023-04-08T04:43:27;8.10;99.90
19555;DHT22;9924;50.828;6.440;2023-04-08T04:46:11;8.10;99.90
19555;DHT22;9924;50.828;6.440;2023-04-08T04:48:56;8.00;99.90
19555;DHT22;9924;50.828;6.440;2023-04-08T04:51:40;8.00;99.90
19555;DHT22;9924;50.828;6.440;2023-04-08T04:54:25;8.00;99.90
19555;DHT22;9924;50.828;6.440;2023-04-08T04:57:09;7.90;99.90
19555;DHT22;9924;50.828;6.440;2023-04-08T04:59:54;7.80;99.90
19555;DHT22;9924;50.828;6.440;2023-04-08T05:02:38;7.80;99.90
19555;DHT22;9924;50.828;6.440;2023-04-08T05:05:22;7.80;99.90
19555;DHT22;9924;50.828;6.440;2023-04-08T05:08:07;7.80;99.90
19555;DHT22;9924;50.828;6.440;2023-04-08T05:10:51;7.80;99.90
19555;DHT22;9924;50.828;6.440;2023-04-08T05:13:38;7.80;99.90
19555;DHT22;9924;50.828;6.440;2023-04-08T05:16:23;7.80;99.90
19555;DHT22;9924;50.828;6.440;2023-04-08T05:19:07;7.90;99.90
19555;DHT22;9924;50.828;6.440;2023-04-08T05:21:52;7.90;99.90
19555;DHT22;9924;50.828;6.440;2023-04-08T05:24:36;8.00;99.90
19555;DHT22;9924;50.828;6.440;2023-04-08T05:27:21;8.10;99.90
19555;DHT22;9924;50.828;6.440;2023-04-08T05:30:06;8.10;99.90
19555;DHT22;9924;50.828;6.440;2023-04-08T05:32:51;8.10;99.90
19555;DHT22;9924;50.828;6.440;2023-04-08T05:35:35;8.20;99.90
19555;DHT22;9924;50.828;6.440;2023-04-08T05:38:20;8.20;99.90
19555;DHT22;9924;50.828;6.440;2023-04-08T05:41:04;8.30;99.90
19555;DHT22;9924;50.828;6.440;2023-04-08T05:43:48;8.40;99.90
19555;DHT22;9924;50.828;6.440;2023-04-08T05:46:33;8.40;99.90
19555;DHT22;9924;50.828;6.440;2023-04-08T05:49:18;8.30;99.90
19555;DHT22;9924;50.828;6.440;2023-04-08T05:52:02;8.10;99.90
19555;DHT22;9924;50.828;6.440;2023-04-08T05:54:47;8.10;99.90
19555;DHT22;9924;50.828;6.440;2023-04-08T05:57:31;8.10;99.90
19555;DHT22;9924;50.828;6.440;2023-04-08T06:00:16;8.10;99.90
19555;DHT22;9924;50.828;6.440;2023-04-08T06:03:00;8.10;99.90
19555;DHT22;9924;50.828;6.440;2023-04-08T06:05:45;8.00;99.90
19555;DHT22;9924;50.828;6.440;2023-04-08T06:08:29;8.10;99.90
19555;DHT22;9924;50.828;6.440;2023-04-08T06:11:15;8.20;99.90
19555;DHT22;9924;50.828;6.440;2023-04-08T06:13:59;8.10;99.90
19555;DHT22;9924;50.828;6.440;2023-04-08T06:16:44;8.10;99.90
19555;DHT22;9924;50.828;6.440;2023-04-08T06:19:28;8.10;99.90
19555;DHT22;9924;50.828;6.440;2023-04-08T06:22:13;8.10;99.90
19555;DHT22;9924;50.828;6.440;2023-04-08T06:24:57;8.20;99.90
19555;DHT22;9924;50.828;6.440;2023-04-08T06:27:41;8.20;99.90
19555;DHT22;9924;50.828;6.440;2023-04-08T06:30:25;8.20;99.90
19555;DHT22;9924;50.828;6.440;2023-04-08T06:33:10;8.10;99.90
19555;DHT22;9924;50.828;6.440;2023-04-08T06:36:05;8.10;99.90
19555;DHT22;9924;50.828;6.440;2023-04-08T06:38:49;8.00;99.90
19555;DHT22;9924;50.828;6.440;2023-04-08T06:41:34;8.00;99.90
19555;DHT22;9924;50.828;6.440;2023-04-08T06:44:19;8.00;99.90
19555;DHT22;9924;50.828;6.440;2023-04-08T06:47:03;8.10;99.90
19555;DHT22;9924;50.828;6.440;2023-04-08T06:49:47;8.20;99.90
19555;DHT22;9924;50.828;6.440;2023-04-08T06:52:31;8.20;99.90
19555;DHT22;9924;50.828;6.440;2023-04-08T06:55:16;8.30;99.90
19555;DHT22;9924;50.828;6.440;2023-04-08T06:58:00;8.30;99.90
19555;DHT22;9924;50.828;6.440;2023-04-08T07:00:45;8.40;99.90
19555;DHT22;9924;50.828;6.440;2023-04-08T07:03:30;8.40;99.90
19555;DHT22;9924;50.828;6.440;2023-04-08T07:06:14;8.30;99.90
19555;DHT22;9924;50.828;6.440;2023-04-08T07:08:59;8.40;99.90
19555;DHT22;9924;50.828;6.440;2023-04-08T07:11:43;8.50;99.90
19555;DHT22;9924;50.828;6.440;2023-04-08T07:14:28;8.50;99.90
19555;DHT22;9924;50.828;6.440;2023-04-08T07:17:13;8.60;99.90
19555;DHT22;9924;50.828;6.440;2023-04-08T07:19:57;8.50;99.90
19555;DHT22;9924;50.828;6.440;2023-04-08T07:22:42;8.40;99.90
19555;DHT22;9924;50.828;6.440;2023-04-08T07:25:26;8.40;99.90
19555;DHT22;9924;50.828;6.440;2023-04-08T07:28:11;8.40;99.90
19555;DHT22;9924;50.828;6.440;2023-04-08T07:30:55;8.40;99.90
19555;DHT22;9924;50.828;6.440;2023-04-08T07:33:41;8.50;99.90
19555;DHT22;9924;50.828;6.440;2023-04-08T07:36:25;8.50;99.90
19555;DHT22;9924;50.828;6.440;2023-04-08T07:39:09;8.50;99.90
19555;DHT22;9924;50.828;6.440;2023-04-08T07:41:53;8.60;99.90
19555;DHT22;9924;50.828;6.440;2023-04-08T07:44:37;8.70;99.90
19555;DHT22;9924;50.828;6.440;2023-04-08T07:47:22;8.80;99.90
19555;DHT22;9924;50.828;6.440;2023-04-08T07:50:07;8.80;99.90
19555;DHT22;9924;50.828;6.440;2023-04-08T07:52:51;8.80;99.90
19555;DHT22;9924;50.828;6.440;2023-04-08T07:55:36;8.90;99.90
19555;DHT22;9924;50.828;6.440;2023-04-08T07:58:23;9.00;99.90
19555;DHT22;9924;50.828;6.440;2023-04-08T08:01:34;9.00;99.90
19555;DHT22;9924;50.828;6.440;2023-04-08T08:04:19;9.20;99.90
19555;DHT22;9924;50.828;6.440;2023-04-08T08:07:03;9.20;99.90
19555;DHT22;9924;50.828;6.440;2023-04-08T08:09:47;9.30;99.90
19555;DHT22;9924;50.828;6.440;2023-04-08T08:12:32;9.60;99.90
19555;DHT22;9924;50.828;6.440;2023-04-08T08:15:16;9.70;99.90
19555;DHT22;9924;50.828;6.440;2023-04-08T08:18:01;9.90;99.90
19555;DHT22;9924;50.828;6.440;2023-04-08T08:20:45;10.00;99.90
19555;DHT22;9924;50.828;6.440;2023-04-08T08:23:30;10.10;99.90
19555;DHT22;9924;50.828;6.440;2023-04-08T08:26:14;10.20;99.90
19555;DHT22;9924;50.828;6.440;2023-04-08T08:28:58;10.30;99.90
19555;DHT22;9924;50.828;6.440;2023-04-08T08:31:44;10.50;99.90
19555;DHT22;9924;50.828;6.440;2023-04-08T08:34:28;10.40;99.90
19555;DHT22;9924;50.828;6.440;2023-04-08T08:37:12;10.50;99.90
19555;DHT22;9924;50.828;6.440;2023-04-08T08:39:57;10.70;99.90
19555;DHT22;9924;50.828;6.440;2023-04-08T08:42:48;10.60;99.90
19555;DHT22;9924;50.828;6.440;2023-04-08T08:45:33;10.80;99.90
19555;DHT22;9924;50.828;6.440;2023-04-08T08:48:18;11.00;99.90
19555;DHT22;9924;50.828;6.440;2023-04-08T08:51:07;11.00;99.90
19555;DHT22;9924;50.828;6.440;2023-04-08T08:53:52;11.10;99.90
19555;DHT22;9924;50.828;6.440;2023-04-08T08:56:37;11.70;99.90
19555;DHT22;9924;50.828;6.440;2023-04-08T08:59:21;12.20;99.90
19555;DHT22;9924;50.828;6.440;2023-04-08T09:02:31;12.70;99.90
19555;DHT22;9924;50.828;6.440;2023-04-08T09:05:16;13.40;99.90
19555;DHT22;9924;50.828;6.440;2023-04-08T09:08:01;12.80;99.90
19555;DHT22;9924;50.828;6.440;2023-04-08T09:10:45;12.50;99.90
19555;DHT22;9924;50.828;6.440;2023-04-08T09:13:34;12.20;99.90
19555;DHT22;9924;50.828;6.440;2023-04-08T09:16:20;12.10;99.90
19555;DHT22;9924;50.828;6.440;2023-04-08T09:19:10;12.40;99.90
19555;DHT22;9924;50.828;6.440;2023-04-08T09:22:08;12.80;99.90
19555;DHT22;9924;50.828;6.440;2023-04-08T09:24:53;13.40;99.90
19555;DHT22;9924;50.828;6.440;2023-04-08T09:27:37;13.90;99.90
19555;DHT22;9924;50.828;6.440;2023-04-08T09:30:25;13.70;99.90
19555;DHT22;9924;50.828;6.440;2023-04-08T09:33:10;13.10;99.90
19555;DHT22;9924;50.828;6.440;2023-04-08T09:35:55;12.60;99.90
19555;DHT22;9924;50.828;6.440;2023-04-08T09:38:40;12.80;99.90
19555;DHT22;9924;50.828;6.440;2023-04-08T09:41:27;12.90;99.90
19555;DHT22;9924;50.828;6.440;2023-04-08T09:44:13;13.10;99.90
19555;DHT22;9924;50.828;6.440;2023-04-08T09:47:07;13.40;99.90
19555;DHT22;9924;50.828;6.440;2023-04-08T09:50:00;13.40;99.90
19555;DHT22;9924;50.828;6.440;2023-04-08T09:52:50;13.40;99.90
19555;DHT22;9924;50.828;6.440;2023-04-08T09:55:38;13.10;99.90
19555;DHT22;9924;50.828;6.440;2023-04-08T09:58:27;13.00;99.90
19555;DHT22;9924;50.828;6.440;2023-04-08T10:01:13;13.10;99.90
19555;DHT22;9924;50.828;6.440;2023-04-08T10:04:00;13.30;99.90
19555;DHT22;9924;50.828;6.440;2023-04-08T10:06:53;13.40;99.90
19555;DHT22;9924;50.828;6.440;2023-04-08T10:09:37;13.50;99.90
19555;DHT22;9924;50.828;6.440;2023-04-08T10:12:22;13.40;99.90
19555;DHT22;9924;50.828;6.440;2023-04-08T10:20:56;13.20;99.90
19555;DHT22;9924;50.828;6.440;2023-04-08T10:23:57;13.30;99.90
19555;DHT22;9924;50.828;6.440;2023-04-08T10:26:49;13.50;99.90
19555;DHT22;9924;50.828;6.440;2023-04-08T10:29:33;13.70;99.90
19555;DHT22;9924;50.828;6.440;2023-04-08T10:32:27;13.50;99.90
19555;DHT22;9924;50.828;6.440;2023-04-08T10:35:13;13.70;99.90
19555;DHT22;9924;50.828;6.440;2023-04-08T10:37:58;14.00;99.90
19555;DHT22;9924;50.828;6.440;2023-04-08T10:40:44;14.10;99.90
19555;DHT22;9924;50.828;6.440;2023-04-08T10:43:36;14.40;99.90
19555;DHT22;9924;50.828;6.440;2023-04-08T10:46:20;14.50;99.90
19555;DHT22;9924;50.828;6.440;2023-04-08T10:49:05;14.70;99.90
19555;DHT22;9924;50.828;6.440;2023-04-08T10:51:49;14.60;99.90
19555;DHT22;9924;50.828;6.440;2023-04-08T10:54:34;14.40;99.90
19555;DHT22;9924;50.828;6.440;2023-04-08T10:57:25;14.10;99.90
19555;DHT22;9924;50.828;6.440;2023-04-08T11:00:17;14.00;99.90
19555;DHT22;9924;50.828;6.440;2023-04-08T11:03:03;13.80;99.90
19555;DHT22;9924;50.828;6.440;2023-04-08T11:05:48;13.60;99.90
19555;DHT22;9924;50.828;6.440;2023-04-08T11:08:34;13.80;99.90
19555;DHT22;9924;50.828;6.440;2023-04-08T11:11:20;13.90;99.90
19555;DHT22;9924;50.828;6.440;2023-04-08T11:14:06;13.80;99.90
19555;DHT22;9924;50.828;6.440;2023-04-08T11:16:51;13.90;99.90
19555;DHT22;9924;50.828;6.440;2023-04-08T11:19:36;14.20;99.90
19555;DHT22;9924;50.828;6.440;2023-04-08T11:22:20;14.50;99.90
19555;DHT22;9924;50.828;6.440;2023-04-08T11:25:06;14.70;99.90
19555;DHT22;9924;50.828;6.440;2023-04-08T11:27:51;14.60;99.90
19555;DHT22;9924;50.828;6.440;2023-04-08T11:30:38;14.70;99.90
19555;DHT22;9924;50.828;6.440;2023-04-08T11:33:26;14.80;99.90
19555;DHT22;9924;50.828;6.440;2023-04-08T11:36:15;15.00;99.90
19555;DHT22;9924;50.828;6.440;2023-04-08T11:39:07;15.10;99.90
19555;DHT22;9924;50.828;6.440;2023-04-08T11:41:52;15.10;99.90
19555;DHT22;9924;50.828;6.440;2023-04-08T11:44:37;15.40;99.90
19555;DHT22;9924;50.828;6.440;2023-04-08T11:47:21;15.50;99.90
19555;DHT22;9924;50.828;6.440;2023-04-08T11:50:06;15.90;99.90
19555;DHT22;9924;50.828;6.440;2023-04-08T11:52:52;16.20;99.90
19555;DHT22;9924;50.828;6.440;2023-04-08T11:55:37;16.30;99.90
19555;DHT22;9924;50.828;6.440;2023-04-08T11:58:21;16.60;99.90
19555;DHT22;9924;50.828;6.440;2023-04-08T12:01:05;16.50;99.90
19555;DHT22;9924;50.828;6.440;2023-04-08T12:03:58;16.10;99.90
19555;DHT22;9924;50.828;6.440;2023-04-08T12:06:42;15.80;99.90
19555;DHT22;9924;50.828;6.440;2023-04-08T12:09:30;15.20;99.90
19555;DHT22;9924;50.828;6.440;2023-04-08T12:12:14;14.80;99.90
19555;DHT22;9924;50.828;6.440;2023-04-08T12:14:58;14.40;99.90
19555;DHT22;9924;50.828;6.440;2023-04-08T12:17:43;14.30;99.90
19555;DHT22;9924;50.828;6.440;2023-04-08T12:20:27;14.00;99.90
19555;DHT22;9924;50.828;6.440;2023-04-08T12:23:13;14.00;99.90
19555;DHT22;9924;50.828;6.440;2023-04-08T12:25:58;14.30;99.90
19555;DHT22;9924;50.828;6.440;2023-04-08T12:28:42;14.20;99.90
19555;DHT22;9924;50.828;6.440;2023-04-08T12:31:26;14.10;99.90
19555;DHT22;9924;50.828;6.440;2023-04-08T12:34:12;14.10;99.90
19555;DHT22;9924;50.828;6.440;2023-04-08T12:36:56;13.90;99.90
19555;DHT22;9924;50.828;6.440;2023-04-08T12:39:41;13.60;99.90
19555;DHT22;9924;50.828;6.440;2023-04-08T12:42:25;13.80;99.90
19555;DHT22;9924;50.828;6.440;2023-04-08T12:45:11;14.10;99.90
19555;DHT22;9924;50.828;6.440;2023-04-08T12:47:55;14.80;99.90
19555;DHT22;9924;50.828;6.440;2023-04-08T12:50:40;15.30;99.90
19555;DHT22;9924;50.828;6.440;2023-04-08T12:53:24;15.50;99.90
19555;DHT22;9924;50.828;6.440;2023-04-08T12:56:08;15.60;99.90
19555;DHT22;9924;50.828;6.440;2023-04-08T12:58:53;15.40;99.90
19555;DHT22;9924;50.828;6.440;2023-04-08T13:01:39;15.10;99.90
19555;DHT22;9924;50.828;6.440;2023-04-08T13:04:24;15.10;99.90
19555;DHT22;9924;50.828;6.440;2023-04-08T13:07:08;15.20;99.90
19555;DHT22;9924;50.828;6.440;2023-04-08T13:09:52;15.00;99.90
19555;DHT22;9924;50.828;6.440;2023-04-08T13:12:37;14.80;99.90
19555;DHT22;9924;50.828;6.440;2023-04-08T13:15:23;14.20;99.90
19555;DHT22;9924;50.828;6.440;2023-04-08T13:18:07;13.70;99.90
19555;DHT22;9924;50.828;6.440;2023-04-08T13:20:52;13.50;99.90
19555;DHT22;9924;50.828;6.440;2023-04-08T13:23:37;13.40;99.90
19555;DHT22;9924;50.828;6.440;2023-04-08T13:26:21;13.40;99.90
19555;DHT22;9924;50.828;6.440;2023-04-08T13:29:06;13.20;99.90
19555;DHT22;9924;50.828;6.440;2023-04-08T13:31:50;13.30;99.90
19555;DHT22;9924;50.828;6.440;2023-04-08T13:34:36;13.30;99.90
19555;DHT22;9924;50.828;6.440;2023-04-08T13:37:21;13.30;99.90
19555;DHT22;9924;50.828;6.440;2023-04-08T13:40:06;13.20;99.90
19555;DHT22;9924;50.828;6.440;2023-04-08T13:42:51;13.10;99.90
19555;DHT22;9924;50.828;6.440;2023-04-08T13:45:35;13.20;99.90
19555;DHT22;9924;50.828;6.440;2023-04-08T13:48:20;13.20;99.90
19555;DHT22;9924;50.828;6.440;2023-04-08T13:51:04;13.20;99.90
19555;DHT22;9924;50.828;6.440;2023-04-08T13:53:48;13.10;99.90
19555;DHT22;9924;50.828;6.440;2023-04-08T13:56:33;13.10;99.90
19555;DHT22;9924;50.828;6.440;2023-04-08T13:59:19;12.90;99.90
19555;DHT22;9924;50.828;6.440;2023-04-08T14:02:04;12.80;99.90
19555;DHT22;9924;50.828;6.440;2023-04-08T14:04:49;12.90;99.90
19555;DHT22;9924;50.828;6.440;2023-04-08T14:07:34;12.90;99.90
19555;DHT22;9924;50.828;6.440;2023-04-08T14:10:18;12.90;99.90
19555;DHT22;9924;50.828;6.440;2023-04-08T14:13:03;12.90;99.90
19555;DHT22;9924;50.828;6.440;2023-04-08T14:15:47;13.00;99.90
19555;DHT22;9924;50.828;6.440;2023-04-08T14:18:32;13.10;99.90
19555;DHT22;9924;50.828;6.440;2023-04-08T14:21:17;13.00;99.90
19555;DHT22;9924;50.828;6.440;2023-04-08T14:24:01;13.00;99.90
19555;DHT22;9924;50.828;6.440;2023-04-08T14:26:46;13.10;99.90
19555;DHT22;9924;50.828;6.440;2023-04-08T14:29:30;13.10;99.90
19555;DHT22;9924;50.828;6.440;2023-04-08T14:32:15;13.20;99.90
19555;DHT22;9924;50.828;6.440;2023-04-08T14:34:59;13.30;99.90
19555;DHT22;9924;50.828;6.440;2023-04-08T14:37:44;13.30;99.90
19555;DHT22;9924;50.828;6.440;2023-04-08T14:40:28;13.40;99.90
19555;DHT22;9924;50.828;6.440;2023-04-08T14:43:12;13.40;99.90
19555;DHT22;9924;50.828;6.440;2023-04-08T14:45:57;13.20;99.90
19555;DHT22;9924;50.828;6.440;2023-04-08T14:48:41;13.20;99.90
19555;DHT22;9924;50.828;6.440;2023-04-08T14:51:29;13.20;99.90
19555;DHT22;9924;50.828;6.440;2023-04-08T14:54:15;13.20;99.90
19555;DHT22;9924;50.828;6.440;2023-04-08T14:57:00;13.20;99.90
19555;DHT22;9924;50.828;6.440;2023-04-08T14:59:45;13.20;99.90
19555;DHT22;9924;50.828;6.440;2023-04-08T15:02:29;13.20;99.90
19555;DHT22;9924;50.828;6.440;2023-04-08T15:05:14;13.00;99.90
19555;DHT22;9924;50.828;6.440;2023-04-08T15:07:59;12.90;99.90
19555;DHT22;9924;50.828;6.440;2023-04-08T15:10:43;12.80;99.90
19555;DHT22;9924;50.828;6.440;2023-04-08T15:13:28;12.70;99.90
19555;DHT22;9924;50.828;6.440;2023-04-08T15:16:12;12.70;99.90
19555;DHT22;9924;50.828;6.440;2023-04-08T15:18:57;12.70;99.90
19555;DHT22;9924;50.828;6.440;2023-04-08T15:21:43;12.80;99.90
19555;DHT22;9924;50.828;6.440;2023-04-08T15:24:27;12.80;99.90
19555;DHT22;9924;50.828;6.440;2023-04-08T15:27:12;12.60;99.90
19555;DHT22;9924;50.828;6.440;2023-04-08T15:29:57;12.60;99.90
19555;DHT22;9924;50.828;6.440;2023-04-08T15:32:41;12.70;99.90
19555;DHT22;9924;50.828;6.440;2023-04-08T15:35:26;12.70;99.90
19555;DHT22;9924;50.828;6.440;2023-04-08T15:38:10;12.60;99.90
19555;DHT22;9924;50.828;6.440;2023-04-08T15:40:57;12.70;99.90
19555;DHT22;9924;50.828;6.440;2023-04-08T15:43:42;12.70;99.90
19555;DHT22;9924;50.828;6.440;2023-04-08T15:46:26;12.50;99.90
19555;DHT22;9924;50.828;6.440;2023-04-08T15:49:11;12.60;99.90
19555;DHT22;9924;50.828;6.440;2023-04-08T15:51:55;12.70;99.90
19555;DHT22;9924;50.828;6.440;2023-04-08T15:54:40;12.80;99.90
19555;DHT22;9924;50.828;6.440;2023-04-08T15:57:24;12.80;99.90
19555;DHT22;9924;50.828;6.440;2023-04-08T16:00:10;12.70;99.90
19555;DHT22;9924;50.828;6.440;2023-04-08T16:02:54;12.60;99.90
19555;DHT22;9924;50.828;6.440;2023-04-08T16:05:39;12.50;99.90
19555;DHT22;9924;50.828;6.440;2023-04-08T16:08:24;12.50;99.90
19555;DHT22;9924;50.828;6.440;2023-04-08T16:11:09;12.30;99.90
19555;DHT22;9924;50.828;6.440;2023-04-08T16:13:54;12.30;99.90
19555;DHT22;9924;50.828;6.440;2023-04-08T16:16:38;12.20;99.90
19555;DHT22;9924;50.828;6.440;2023-04-08T16:19:23;12.20;99.90
19555;DHT22;9924;50.828;6.440;2023-04-08T16:22:07;12.30;99.90
19555;DHT22;9924;50.828;6.440;2023-04-08T16:24:52;12.30;99.90
19555;DHT22;9924;50.828;6.440;2023-04-08T16:27:36;12.30;99.90
19555;DHT22;9924;50.828;6.440;2023-04-08T16:30:21;12.30;99.90
19555;DHT22;9924;50.828;6.440;2023-04-08T16:33:06;12.10;99.90
19555;DHT22;9924;50.828;6.440;2023-04-08T16:35:51;12.10;99.90
19555;DHT22;9924;50.828;6.440;2023-04-08T16:38:35;12.00;99.90
19555;DHT22;9924;50.828;6.440;2023-04-08T16:41:20;12.10;99.90
19555;DHT22;9924;50.828;6.440;2023-04-08T16:44:04;12.40;99.90
19555;DHT22;9924;50.828;6.440;2023-04-08T16:46:48;12.90;99.90
19555;DHT22;9924;50.828;6.440;2023-04-08T16:49:32;13.20;99.90
19555;DHT22;9924;50.828;6.440;2023-04-08T16:52:17;13.20;99.90
19555;DHT22;9924;50.828;6.440;2023-04-08T16:55:01;13.10;99.90
19555;DHT22;9924;50.828;6.440;2023-04-08T16:57:46;13.00;99.90
19555;DHT22;9924;50.828;6.440;2023-04-08T17:00:31;13.00;99.90
19555;DHT22;9924;50.828;6.440;2023-04-08T17:03:15;12.90;99.90
19555;DHT22;9924;50.828;6.440;2023-04-08T17:06:10;12.80;99.90
19555;DHT22;9924;50.828;6.440;2023-04-08T17:08:55;12.60;99.90
19555;DHT22;9924;50.828;6.440;2023-04-08T17:11:40;12.40;99.90
19555;DHT22;9924;50.828;6.440;2023-04-08T17:14:24;12.20;99.90
19555;DHT22;9924;50.828;6.440;2023-04-08T17:17:10;12.10;99.90
19555;DHT22;9924;50.828;6.440;2023-04-08T17:19:54;12.00;99.90
19555;DHT22;9924;50.828;6.440;2023-04-08T17:22:39;11.90;99.90
19555;DHT22;9924;50.828;6.440;2023-04-08T17:25:24;11.80;99.90
19555;DHT22;9924;50.828;6.440;2023-04-08T17:28:08;11.70;99.90
19555;DHT22;9924;50.828;6.440;2023-04-08T17:30:52;11.70;99.90
19555;DHT22;9924;50.828;6.440;2023-04-08T17:33:36;11.60;99.90
19555;DHT22;9924;50.828;6.440;2023-04-08T17:36:21;11.60;99.90
19555;DHT22;9924;50.828;6.440;2023-04-08T17:39:05;11.60;99.90
19555;DHT22;9924;50.828;6.440;2023-04-08T17:41:51;11.50;99.90
19555;DHT22;9924;50.828;6.440;2023-04-08T17:44:36;11.50;99.90
19555;DHT22;9924;50.828;6.440;2023-04-08T17:47:21;11.50;99.90
19555;DHT22;9924;50.828;6.440;2023-04-08T17:50:05;11.50;99.90
19555;DHT22;9924;50.828;6.440;2023-04-08T17:52:50;11.50;99.90
19555;DHT22;9924;50.828;6.440;2023-04-08T17:55:34;11.40;99.90
19555;DHT22;9924;50.828;6.440;2023-04-08T17:58:19;11.40;99.90
19555;DHT22;9924;50.828;6.440;2023-04-08T18:01:04;11.40;99.90
19555;DHT22;9924;50.828;6.440;2023-04-08T18:03:48;11.40;99.90
19555;DHT22;9924;50.828;6.440;2023-04-08T18:06:36;11.40;99.90